Time;durP1;ratioP1;P1;durP2;ratioP2;P2;SDS_P1;SDS_P2;PMS_P1;PMS_P2;Temp;Humidity;BMP_temperature;BMP_pressure;BME280_temperature;BME280_humidity;BME280_pressure;Samples;Min_cycle;Max_cycle;Signal;HPM_P1;HPM_P2
2022/03/01 00:00:44;;;;;;;10.13;7.90;;;;;;;3.97;65.48;100399.78;5030135;28;20285;-58
2022/03/01 00:03:11;;;;;;;8.20;6.50;;;;;;;3.92;65.44;100403.75;5029920;28;20222;-61
2022/03/01 00:05:38;;;;;;;9.50;7.00;;;;;;;3.94;65.64;100404.69;5029843;28;20703;-58
2022/03/01 00:08:06;;;;;;;8.97;6.90;;;;;;;3.99;65.90;100399.88;5029777;28;20553;-58
2022/03/01 00:10:33;;;;;;;9.43;7.75;;;;;;;4.03;65.69;100405.22;5029112;28;20449;-59
2022/03/01 00:12:59;;;;;;;14.83;9.63;;;;;;;4.01;65.13;100396.63;5032205;28;20202;-59
2022/03/01 00:15:28;;;;;;;13.27;9.80;;;;;;;4.00;65.04;100407.59;5033551;28;20441;-59
2022/03/01 00:17:55;;;;;;;9.70;8.13;;;;;;;3.98;65.94;100398.13;5033215;28;20206;-59
2022/03/01 00:20:22;;;;;;;13.57;8.87;;;;;;;3.99;65.79;100398.19;5033217;28;20199;-59
2022/03/01 00:22:48;;;;;;;10.50;8.37;;;;;;;3.98;65.93;100382.88;5033106;28;20189;-59
2022/03/01 00:25:15;;;;;;;12.77;9.43;;;;;;;4.05;65.79;100388.38;5033045;28;20226;-59
2022/03/01 00:27:42;;;;;;;8.50;7.40;;;;;;;4.02;66.08;100385.66;5033120;28;20281;-59
2022/03/01 00:30:11;;;;;;;16.87;10.80;;;;;;;3.96;66.17;100381.88;5032991;28;20221;-59
2022/03/01 00:32:40;;;;;;;14.67;11.07;;;;;;;3.88;66.15;100373.84;5032917;28;20206;-59
2022/03/01 00:35:07;;;;;;;11.10;8.47;;;;;;;3.87;66.19;100371.22;5032988;28;20193;-59
2022/03/01 00:37:34;;;;;;;12.60;9.10;;;;;;;3.86;65.86;100372.00;5032893;28;20277;-59
2022/03/01 00:40:01;;;;;;;9.00;7.30;;;;;;;3.84;66.43;100374.47;5032808;28;20193;-58
2022/03/01 00:42:28;;;;;;;11.60;7.57;;;;;;;3.75;66.86;100373.06;5032722;28;20206;-59
2022/03/01 00:44:55;;;;;;;12.30;7.90;;;;;;;3.70;66.82;100371.94;5032879;28;20228;-59
2022/03/01 00:47:22;;;;;;;7.93;6.10;;;;;;;3.75;66.98;100373.06;5032658;28;20199;-59
2022/03/01 00:49:50;;;;;;;7.13;6.43;;;;;;;3.70;67.40;100360.09;5032585;28;20195;-59
2022/03/01 00:52:17;;;;;;;8.70;7.33;;;;;;;3.70;67.78;100360.09;5032564;28;20195;-59
2022/03/01 00:54:44;;;;;;;8.00;7.17;;;;;;;3.61;67.97;100359.56;5032864;28;20215;-58
2022/03/01 00:57:11;;;;;;;9.57;8.57;;;;;;;3.60;68.57;100359.50;5031787;28;20433;-58
2022/03/01 00:59:38;;;;;;;8.67;7.77;;;;;;;3.72;68.51;100361.06;5032475;28;20288;-58
2022/03/01 01:02:05;;;;;;;8.63;7.40;;;;;;;3.64;68.96;100354.66;5032668;28;20197;-58
2022/03/01 01:04:32;;;;;;;8.80;7.23;;;;;;;3.59;69.50;100353.53;5032262;28;20217;-59
2022/03/01 01:07:00;;;;;;;7.43;6.40;;;;;;;3.66;69.41;100358.16;5032416;28;20222;-59
2022/03/01 01:09:27;;;;;;;7.83;6.67;;;;;;;3.64;68.92;100346.16;5032227;28;20251;-57
2022/03/01 01:11:54;;;;;;;8.23;7.23;;;;;;;3.48;69.56;100354.59;5032287;28;20200;-57
2022/03/01 01:14:21;;;;;;;8.53;7.43;;;;;;;3.41;69.94;100352.44;5032467;28;20189;-59
2022/03/01 01:16:48;;;;;;;9.40;8.50;;;;;;;3.49;70.22;100356.31;5031745;28;20912;-59
2022/03/01 01:19:15;;;;;;;8.47;7.60;;;;;;;3.60;70.60;100356.97;5032224;28;20451;-57
2022/03/01 01:24:27;;;;;;;11.23;8.87;;;;;;;3.48;69.69;100321.56;5031709;28;20721;-58
2022/03/01 01:26:55;;;;;;;8.83;7.57;;;;;;;3.70;70.09;100352.47;5032344;28;20197;-57
2022/03/01 01:29:22;;;;;;;8.43;7.00;;;;;;;3.69;69.61;100353.25;5031652;28;20239;-57
2022/03/01 01:31:49;;;;;;;7.93;7.13;;;;;;;3.68;69.91;100351.50;5032066;28;20709;-57
2022/03/01 01:34:16;;;;;;;10.03;7.07;;;;;;;3.71;70.22;100358.44;5041233;28;20204;-58
2022/03/01 01:36:43;;;;;;;9.87;7.97;;;;;;;3.78;69.69;100365.63;5051097;28;20474;-57
2022/03/01 01:39:10;;;;;;;11.97;9.60;;;;;;;3.71;69.67;100359.28;5051880;28;20658;-57
2022/03/01 01:41:38;;;;;;;11.97;9.70;;;;;;;3.74;69.51;100362.00;5051610;28;20196;-57
2022/03/01 01:44:06;;;;;;;12.00;9.90;;;;;;;3.69;69.45;100360.88;5051710;28;20205;-58
2022/03/01 01:46:33;;;;;;;9.90;8.03;;;;;;;3.62;69.54;100351.16;5051418;28;20194;-57
2022/03/01 01:49:00;;;;;;;9.83;7.80;;;;;;;3.70;69.98;100360.09;5043284;28;20201;-57
2022/03/01 01:51:27;;;;;;;8.57;7.45;;;;;;;3.70;69.88;100360.09;5051332;28;20947;-57
2022/03/01 01:53:54;;;;;;;9.47;7.70;;;;;;;3.67;69.65;100361.59;5051608;28;20192;-57
2022/03/01 01:56:21;;;;;;;7.83;7.00;;;;;;;3.57;69.70;100355.13;5051523;28;20192;-57
2022/03/01 01:58:49;;;;;;;10.45;9.40;;;;;;;3.63;70.64;100367.25;5050176;28;20434;-57
2022/03/01 02:01:16;;;;;;;10.53;8.47;;;;;;;3.64;70.68;100361.41;5051316;28;20253;-57
2022/03/01 02:03:43;;;;;;;9.17;7.97;;;;;;;3.38;72.39;100362.44;5051185;28;20194;-58
2022/03/01 02:06:11;;;;;;;8.73;7.17;;;;;;;3.07;74.51;100349.63;5051099;28;20714;-57
2022/03/01 02:08:37;;;;;;;8.47;7.07;;;;;;;2.83;75.37;100349.03;5051354;28;20193;-57
2022/03/01 02:11:04;;;;;;;8.13;7.07;;;;;;;2.69;77.02;100343.94;5050884;28;20189;-57
2022/03/01 02:13:31;;;;;;;12.37;9.70;;;;;;;2.52;77.97;100334.41;5049885;28;20447;-58
2022/03/01 02:16:00;;;;;;;8.80;7.90;;;;;;;2.51;78.33;100335.19;5050899;28;20525;-59
2022/03/01 02:18:27;;;;;;;11.27;8.53;;;;;;;2.46;78.77;100339.09;5050952;28;20204;-59
2022/03/01 02:20:55;;;;;;;9.20;8.30;;;;;;;2.46;78.98;100336.56;5050210;28;20200;-59
2022/03/01 02:23:22;;;;;;;10.83;8.90;;;;;;;2.50;79.02;100330.91;5050606;28;20730;-56
2022/03/01 02:25:48;;;;;;;10.93;8.67;;;;;;;2.46;78.95;100326.41;5049411;28;20212;-57
2022/03/01 02:28:15;;;;;;;10.23;8.80;;;;;;;2.51;78.99;100331.00;5046753;28;20211;-57
2022/03/01 02:30:42;;;;;;;12.00;8.83;;;;;;;2.50;79.27;100321.63;5050320;28;20189;-57
2022/03/01 02:33:09;;;;;;;10.63;8.57;;;;;;;2.50;79.21;100311.47;5050225;28;20196;-58
2022/03/01 02:35:36;;;;;;;10.33;8.93;;;;;;;2.51;79.59;100317.41;5049174;28;20187;-57
2022/03/01 02:38:06;;;;;;;12.07;9.77;;;;;;;2.54;79.57;100315.06;5049900;28;20439;-58
2022/03/01 02:40:33;;;;;;;11.20;9.40;;;;;;;2.58;79.45;100311.97;5049931;28;20193;-58
2022/03/01 02:42:59;;;;;;;15.60;10.13;;;;;;;2.53;79.50;100305.75;5048734;28;20199;-58
2022/03/01 02:45:26;;;;;;;11.97;10.27;;;;;;;2.55;78.99;100302.50;5050231;28;20227;-57
2022/03/01 02:47:53;;;;;;;14.20;10.50;;;;;;;2.53;79.15;100311.66;5046732;28;20188;-57
2022/03/01 02:50:20;;;;;;;20.60;17.70;;;;;;;2.48;79.41;100307.97;5049926;28;20207;-57
2022/03/01 02:52:47;;;;;;;19.67;17.57;;;;;;;2.52;79.73;100304.84;5049882;28;20192;-58
2022/03/01 02:55:16;;;;;;;13.63;10.50;;;;;;;2.49;79.94;100304.66;5050216;28;20574;-58
2022/03/01 02:57:43;;;;;;;11.73;9.83;;;;;;;2.52;79.97;100303.97;5050433;28;20207;-58
2022/03/01 03:00:11;;;;;;;13.07;11.80;;;;;;;2.51;80.18;100307.28;5048009;28;20446;-58
2022/03/01 03:02:38;;;;;;;11.83;10.40;;;;;;;2.45;79.88;100302.72;5049429;28;20285;-57
2022/03/01 03:05:07;;;;;;;11.23;10.00;;;;;;;2.29;80.49;100300.03;5050184;28;20310;-57
2022/03/01 03:07:34;;;;;;;9.67;8.67;;;;;;;2.20;80.60;100296.91;5050372;28;20193;-58
2022/03/01 03:10:01;;;;;;;11.20;9.03;;;;;;;2.19;80.77;100302.78;5050185;28;20197;-58
2022/03/01 03:12:30;;;;;;;12.20;9.43;;;;;;;2.05;80.59;100289.25;5049338;28;20200;-58
2022/03/01 03:14:57;;;;;;;13.50;9.97;;;;;;;1.92;80.66;100298.53;5050392;28;20188;-59
2022/03/01 03:17:24;;;;;;;14.03;10.03;;;;;;;1.79;81.54;100296.88;5048288;28;20188;-59
2022/03/01 03:19:51;;;;;;;13.63;10.37;;;;;;;1.82;81.77;100307.19;5047918;28;20666;-58
2022/03/01 03:22:18;;;;;;;12.00;9.77;;;;;;;1.74;82.21;100301.66;5049909;28;20219;-58
2022/03/01 03:24:45;;;;;;;14.70;11.07;;;;;;;1.72;82.34;100305.75;5047149;28;20219;-58
2022/03/01 03:27:12;;;;;;;14.50;11.30;;;;;;;1.77;82.62;100306.91;5049865;28;20198;-58
2022/03/01 03:29:40;;;;;;;15.20;11.07;;;;;;;1.79;82.85;100307.88;5049263;28;20219;-58
2022/03/01 03:32:08;;;;;;;16.07;11.70;;;;;;;1.89;82.68;100314.44;5046518;28;20246;-59
2022/03/01 03:34:35;;;;;;;13.77;10.30;;;;;;;1.91;82.61;100317.94;5049418;28;20199;-58
2022/03/01 03:37:02;;;;;;;12.17;10.80;;;;;;;1.78;82.85;100283.34;5049884;28;20180;-58
2022/03/01 03:39:30;;;;;;;14.87;11.93;;;;;;;1.99;82.66;100318.41;5049290;28;20238;-58
2022/03/01 03:41:57;;;;;;;15.77;13.50;;;;;;;2.13;81.91;100317.59;5043318;28;20530;-58
2022/03/01 03:44:24;;;;;;;12.23;10.60;;;;;;;2.24;81.20;100321.69;5048698;28;20189;-58
2022/03/01 03:46:52;;;;;;;16.77;12.30;;;;;;;2.35;80.42;100313.09;5051390;28;20212;-58
2022/03/01 03:49:19;;;;;;;17.37;12.13;;;;;;;2.40;80.52;100316.78;5052506;28;20185;-58
2022/03/01 03:51:46;;;;;;;15.27;11.97;;;;;;;2.49;80.79;100308.84;5050746;28;20224;-58
2022/03/01 03:54:13;;;;;;;14.20;11.83;;;;;;;2.49;80.25;100307.19;5052743;28;20200;-58
2022/03/01 03:56:40;;;;;;;13.50;12.10;;;;;;;2.52;79.89;100307.38;5052814;28;20180;-58
2022/03/01 03:59:08;;;;;;;14.73;11.93;;;;;;;2.60;80.42;100300.22;5053137;28;20192;-58
2022/03/01 04:01:35;;;;;;;14.50;12.17;;;;;;;2.39;80.07;100269.38;5053345;28;20307;-59
2022/03/01 04:04:03;;;;;;;16.23;12.40;;;;;;;2.67;79.28;100300.69;5053256;28;20667;-59
2022/03/01 04:06:30;;;;;;;18.40;13.37;;;;;;;2.67;78.89;100293.06;5051523;28;20716;-58
2022/03/01 04:08:57;;;;;;;17.10;13.23;;;;;;;2.70;78.98;100289.84;5053133;28;20562;-58
2022/03/01 04:11:25;;;;;;;17.07;13.03;;;;;;;2.75;79.09;100283.38;5051447;28;20201;-58
2022/03/01 04:13:53;;;;;;;18.97;12.17;;;;;;;2.75;78.62;100291.00;5051655;28;20185;-58
2022/03/01 04:16:20;;;;;;;15.00;12.67;;;;;;;2.74;78.62;100286.72;5049923;28;20193;-58
2022/03/01 04:18:47;;;;;;;15.77;11.77;;;;;;;2.78;79.26;100288.63;5050325;28;20195;-58
2022/03/01 04:21:16;;;;;;;17.10;12.53;;;;;;;2.58;78.41;100256.16;5053232;28;20199;-58
2022/03/01 04:23:43;;;;;;;17.90;13.97;;;;;;;2.73;78.72;100292.56;5052691;28;20195;-59
2022/03/01 04:26:11;;;;;;;18.30;13.73;;;;;;;2.56;79.34;100290.66;5052542;28;20204;-59
2022/03/01 04:28:38;;;;;;;17.30;14.37;;;;;;;2.42;79.81;100291.53;5052182;28;20308;-58
2022/03/01 04:31:05;;;;;;;16.07;14.23;;;;;;;2.41;80.13;100294.84;5049541;28;20659;-58
2022/03/01 04:33:31;;;;;;;16.90;13.93;;;;;;;2.38;80.05;100282.84;5051789;28;20195;-59
2022/03/01 04:36:02;;;;;;;18.03;14.03;;;;;;;2.46;79.53;100289.25;5051940;28;20203;-59
2022/03/01 04:38:30;;;;;;;14.30;11.73;;;;;;;2.29;79.24;100285.69;5052344;28;20188;-58
2022/03/01 04:40:57;;;;;;;17.33;12.77;;;;;;;2.17;79.95;100268.88;5052151;28;20188;-58
2022/03/01 04:43:25;;;;;;;15.23;13.30;;;;;;;2.35;80.23;100290.25;5052226;28;20238;-58
2022/03/01 04:45:52;;;;;;;15.93;12.70;;;;;;;2.36;80.46;100292.03;5052689;28;20239;-58
2022/03/01 04:48:19;;;;;;;18.60;14.67;;;;;;;2.13;80.94;100241.56;5051500;28;20188;-58
2022/03/01 04:50:46;;;;;;;24.07;16.03;;;;;;;2.42;80.63;100286.47;5052500;28;20352;-58
2022/03/01 04:53:13;;;;;;;17.63;14.60;;;;;;;2.49;80.12;100298.72;5052712;28;20631;-58
2022/03/01 04:55:41;;;;;;;16.97;14.00;;;;;;;2.51;79.55;100305.63;5050513;28;20192;-58
2022/03/01 04:58:08;;;;;;;17.47;14.30;;;;;;;2.41;79.20;100295.72;5050808;28;20198;-58
2022/03/01 05:00:35;;;;;;;19.77;14.73;;;;;;;2.46;79.16;100309.53;5052284;28;20195;-58
2022/03/01 05:03:03;;;;;;;19.13;15.60;;;;;;;2.47;78.89;100302.81;5049772;28;20651;-58
2022/03/01 05:05:30;;;;;;;18.33;13.77;;;;;;;2.53;78.47;100304.06;5051614;28;20303;-58
2022/03/01 05:07:57;;;;;;;16.13;13.87;;;;;;;2.58;78.51;100307.75;5052256;28;20230;-58
2022/03/01 05:10:24;;;;;;;21.73;16.10;;;;;;;2.67;78.39;100315.03;5052505;28;20211;-58
2022/03/01 05:12:53;;;;;;;20.77;15.33;;;;;;;2.70;77.77;100317.75;5051960;28;20255;-59
2022/03/01 05:15:22;;;;;;;17.93;14.93;;;;;;;2.77;78.00;100322.44;5065132;28;20684;-58
2022/03/01 05:17:49;;;;;;;20.33;15.20;;;;;;;2.76;78.13;100324.09;5053981;28;20282;-57
2022/03/01 05:20:17;;;;;;;20.43;16.87;;;;;;;2.85;78.48;100327.19;5052402;28;20204;-57
2022/03/01 05:22:45;;;;;;;22.98;18.33;;;;;;;2.93;78.68;100320.00;5051462;28;20526;-58
2022/03/01 05:25:14;;;;;;;21.20;16.63;;;;;;;3.06;77.87;100322.47;5038946;28;20204;-58
2022/03/01 05:27:42;;;;;;;21.43;17.33;;;;;;;3.12;77.62;100327.91;5040546;28;20206;-58
2022/03/01 05:30:13;;;;;;;19.20;15.20;;;;;;;3.14;77.83;100320.38;5051731;28;20234;-58
2022/03/01 05:32:44;;;;;;;20.17;16.33;;;;;;;3.21;76.47;100332.66;5035388;28;20568;-59
2022/03/01 05:35:13;;;;;;;20.23;14.70;;;;;;;3.23;76.13;100336.16;5031746;28;20710;-58
2022/03/01 05:37:41;;;;;;;21.27;14.73;;;;;;;3.16;75.71;100336.59;5031523;28;20185;-59
2022/03/01 05:40:09;;;;;;;19.37;15.30;;;;;;;2.99;76.22;100339.00;5049171;28;20566;-59
2022/03/01 05:42:37;;;;;;;20.60;16.73;;;;;;;3.10;76.78;100346.41;5048003;28;20439;-59
2022/03/01 05:45:04;;;;;;;18.77;14.80;;;;;;;3.14;76.83;100346.66;5051047;28;20195;-58
2022/03/01 05:47:33;;;;;;;18.80;13.97;;;;;;;3.03;77.42;100332.44;5051203;28;20296;-59
2022/03/01 05:50:03;;;;;;;19.87;15.80;;;;;;;3.14;77.13;100344.13;5050781;28;20738;-59
2022/03/01 05:52:29;;;;;;;19.03;14.07;;;;;;;3.06;76.63;100347.88;5050744;28;20683;-59
2022/03/01 05:54:56;;;;;;;20.83;15.77;;;;;;;3.09;76.67;100342.97;5051076;28;20439;-59
2022/03/01 05:57:27;;;;;;;18.10;14.37;;;;;;;2.79;76.67;100298.00;5050554;28;20310;-58
2022/03/01 05:59:54;;;;;;;17.77;14.90;;;;;;;3.04;76.83;100349.44;5050713;28;20196;-58
2022/03/01 06:02:21;;;;;;;23.57;15.63;;;;;;;3.11;77.27;100351.53;5049511;28;20625;-58
2022/03/01 06:04:49;;;;;;;19.33;15.13;;;;;;;3.12;77.48;100360.03;5046975;28;20275;-57
2022/03/01 06:07:16;;;;;;;17.50;14.40;;;;;;;3.05;77.05;100363.03;5049695;28;20216;-58
2022/03/01 06:09:43;;;;;;;20.53;15.93;;;;;;;3.06;76.94;100369.84;5049504;28;20201;-59
2022/03/01 06:12:11;;;;;;;21.40;15.20;;;;;;;3.15;77.10;100367.84;5050357;28;20651;-58
2022/03/01 06:14:37;;;;;;;23.87;15.50;;;;;;;3.17;77.65;100367.16;5050248;28;20207;-59
2022/03/01 06:17:05;;;;;;;21.33;15.13;;;;;;;3.15;76.88;100372.91;5050324;28;20184;-59
2022/03/01 06:19:32;;;;;;;21.63;15.03;;;;;;;3.01;76.70;100372.09;5050857;28;20197;-59
2022/03/01 06:22:01;;;;;;;21.77;17.02;;;;;;;2.86;77.26;100382.19;5050238;28;20451;-59
2022/03/01 06:24:28;;;;;;;20.60;16.93;;;;;;;2.80;77.60;100381.81;5050507;28;20200;-58
2022/03/01 06:26:55;;;;;;;19.63;14.47;;;;;;;2.87;77.44;100378.91;5050680;28;20255;-59
2022/03/01 06:29:22;;;;;;;19.97;15.93;;;;;;;3.02;77.83;100383.13;5050282;28;20322;-59
2022/03/01 06:31:49;;;;;;;21.97;17.40;;;;;;;3.02;77.18;100378.94;5050805;28;20192;-59
2022/03/01 06:34:16;;;;;;;23.90;17.77;;;;;;;3.09;77.31;100377.63;5050496;28;20570;-57
2022/03/01 06:36:43;;;;;;;25.67;19.83;;;;;;;3.22;77.10;100385.19;5049338;28;20973;-58
2022/03/01 06:39:11;;;;;;;22.07;18.03;;;;;;;3.29;76.53;100388.19;5050503;28;20563;-59
2022/03/01 06:41:38;;;;;;;21.77;16.07;;;;;;;3.10;76.18;100349.81;5050015;28;20196;-59
2022/03/01 06:44:05;;;;;;;20.70;16.33;;;;;;;3.34;76.79;100385.91;5049395;28;20204;-60
2022/03/01 06:46:32;;;;;;;20.07;15.33;;;;;;;3.38;76.57;100382.75;5049846;28;20216;-59
2022/03/01 06:48:59;;;;;;;18.13;15.20;;;;;;;3.47;75.78;100381.63;5050469;28;20205;-60
2022/03/01 06:51:26;;;;;;;33.53;14.77;;;;;;;3.51;74.75;100388.66;5050086;28;20200;-60
2022/03/01 06:53:53;;;;;;;18.33;13.67;;;;;;;3.53;74.64;100388.75;5050087;28;20288;-60
2022/03/01 06:56:21;;;;;;;18.70;14.57;;;;;;;3.60;74.61;100390.00;5050036;28;20273;-59
2022/03/01 06:58:48;;;;;;;21.73;14.63;;;;;;;3.64;73.90;100395.31;5050192;28;20271;-61
2022/03/01 07:01:15;;;;;;;20.50;14.07;;;;;;;3.71;73.95;100389.78;5049940;28;20752;-60
2022/03/01 07:03:43;;;;;;;19.17;14.83;;;;;;;3.70;74.48;100393.13;5049977;28;20271;-60
2022/03/01 07:06:10;;;;;;;19.43;14.70;;;;;;;3.74;74.38;100387.44;5049927;28;20215;-61
2022/03/01 07:08:36;;;;;;;17.93;13.80;;;;;;;3.81;72.96;100393.75;5049678;28;20287;-61
2022/03/01 07:11:04;;;;;;;17.70;12.73;;;;;;;3.91;72.75;100389.28;5049743;28;20192;-60
2022/03/01 07:13:32;;;;;;;13.93;12.00;;;;;;;4.02;71.88;100395.84;5049891;28;20197;-61
2022/03/01 07:15:59;;;;;;;15.50;11.87;;;;;;;4.06;71.12;100394.34;5049908;28;20208;-60
2022/03/01 07:18:26;;;;;;;16.17;11.53;;;;;;;4.18;70.49;100384.84;5049950;28;20191;-61
2022/03/01 07:20:53;;;;;;;14.50;11.40;;;;;;;4.03;70.24;100361.13;5051739;28;20235;-61
2022/03/01 07:23:20;;;;;;;17.55;13.18;;;;;;;4.25;71.20;100378.44;5055702;28;20435;-61
2022/03/01 07:25:47;;;;;;;23.37;15.70;;;;;;;4.21;69.37;100379.03;5056469;28;20287;-62
2022/03/01 07:28:14;;;;;;;14.87;12.50;;;;;;;4.33;69.31;100384.81;5056230;28;20303;-60
2022/03/01 07:30:42;;;;;;;16.83;12.63;;;;;;;4.36;68.77;100377.34;5055984;28;20669;-61
2022/03/01 07:33:09;;;;;;;21.40;13.97;;;;;;;4.58;69.14;100385.38;5056636;28;20196;-61
2022/03/01 07:35:36;;;;;;;19.53;14.70;;;;;;;4.64;68.13;100383.16;5055836;28;20189;-61
2022/03/01 07:38:03;;;;;;;16.90;13.67;;;;;;;4.80;69.24;100380.63;5047117;28;20192;-61
2022/03/01 07:40:30;;;;;;;15.63;12.77;;;;;;;4.88;67.66;100384.47;5056316;28;20200;-60
2022/03/01 07:42:57;;;;;;;17.90;13.20;;;;;;;4.87;67.67;100377.59;5055572;28;20435;-60
2022/03/01 07:45:24;;;;;;;9.33;8.33;;;;;;;4.98;65.78;100381.59;5056360;28;20220;-60
2022/03/01 07:47:52;;;;;;;13.07;9.27;;;;;;;5.04;65.26;100381.03;5056153;28;20221;-61
2022/03/01 07:50:20;;;;;;;18.50;12.77;;;;;;;5.02;66.03;100380.97;5054346;28;20277;-61
2022/03/01 07:52:47;;;;;;;12.87;10.63;;;;;;;5.12;65.26;100395.91;5054540;28;20193;-61
2022/03/01 07:55:14;;;;;;;16.57;12.60;;;;;;;5.13;65.52;100395.13;5051843;28;20200;-61
2022/03/01 07:57:42;;;;;;;15.60;12.40;;;;;;;5.23;65.61;100391.38;5052877;28;20181;-61
2022/03/01 08:00:10;;;;;;;19.63;12.43;;;;;;;5.24;65.53;100386.38;5055379;28;20628;-60
2022/03/01 08:02:37;;;;;;;15.97;10.17;;;;;;;5.27;66.06;100398.41;5055207;28;20208;-61
2022/03/01 08:05:07;;;;;;;12.80;10.63;;;;;;;5.31;64.84;100392.63;5055154;28;20192;-61
2022/03/01 08:07:35;;;;;;;13.57;10.30;;;;;;;5.37;64.83;100398.06;5055053;28;20664;-60
2022/03/01 08:10:03;;;;;;;14.13;11.90;;;;;;;5.28;65.33;100406.09;5052907;28;20191;-60
2022/03/01 08:12:30;;;;;;;20.63;12.70;;;;;;;5.29;65.39;100410.41;5055335;28;20281;-61
2022/03/01 08:14:57;;;;;;;14.63;11.03;;;;;;;5.22;64.86;100410.88;5054880;28;20275;-60
2022/03/01 08:17:24;;;;;;;18.20;13.90;;;;;;;5.31;65.97;100401.16;5051247;28;20794;-61
2022/03/01 08:19:51;;;;;;;20.97;13.10;;;;;;;5.49;64.13;100413.09;5053445;28;20195;-60
2022/03/01 08:22:19;;;;;;;17.77;11.33;;;;;;;5.56;64.49;100405.84;5055077;28;20212;-61
2022/03/01 08:24:46;;;;;;;15.23;11.30;;;;;;;5.62;64.02;100410.38;5052904;28;20182;-61
2022/03/01 08:27:13;;;;;;;14.53;11.03;;;;;;;5.64;63.38;100411.31;5055151;28;20218;-61
2022/03/01 08:29:40;;;;;;;12.93;11.03;;;;;;;5.74;62.96;100411.84;5054627;28;20225;-61
2022/03/01 08:32:07;;;;;;;15.07;11.27;;;;;;;5.82;62.85;100405.44;5053735;28;20186;-61
2022/03/01 08:34:34;;;;;;;15.60;10.70;;;;;;;5.96;62.56;100418.91;5051000;28;20192;-62
2022/03/01 08:37:01;;;;;;;19.33;11.00;;;;;;;6.08;63.25;100418.63;5051201;28;20276;-61
2022/03/01 08:39:29;;;;;;;15.47;11.10;;;;;;;6.01;62.34;100411.50;5051587;28;20605;-61
2022/03/01 08:41:56;;;;;;;16.83;11.93;;;;;;;6.09;62.97;100413.63;5051548;28;20284;-60
2022/03/01 08:44:23;;;;;;;18.85;14.15;;;;;;;6.19;63.07;100408.16;5051544;28;20526;-61
2022/03/01 08:46:50;;;;;;;20.27;14.43;;;;;;;5.81;62.75;100328.88;5051870;28;20625;-61
2022/03/01 08:49:17;;;;;;;16.97;14.00;;;;;;;6.39;63.61;100412.53;5051478;28;20217;-61
2022/03/01 08:51:44;;;;;;;19.70;14.60;;;;;;;6.36;63.01;100407.28;5051797;28;20201;-61
2022/03/01 08:54:11;;;;;;;18.40;14.10;;;;;;;6.23;63.62;100369.25;5051788;28;20198;-61
2022/03/01 08:56:40;;;;;;;18.83;14.17;;;;;;;6.26;64.13;100414.44;5049420;28;20279;-59
2022/03/01 08:59:07;;;;;;;21.13;14.60;;;;;;;6.34;63.97;100403.78;5052044;28;20196;-60
2022/03/01 09:01:34;;;;;;;19.20;13.80;;;;;;;6.26;63.18;100386.38;5052045;28;20224;-60
2022/03/01 09:04:00;;;;;;;21.58;15.38;;;;;;;6.50;62.40;100400.28;5049753;28;20526;-60
2022/03/01 09:06:28;;;;;;;23.70;15.03;;;;;;;6.67;61.73;100408.72;5051688;28;20559;-61
2022/03/01 09:08:55;;;;;;;19.27;14.83;;;;;;;6.88;62.63;100409.69;5051583;28;20196;-60
2022/03/01 09:11:22;;;;;;;21.73;15.97;;;;;;;6.98;60.14;100406.72;5050551;28;20191;-61
2022/03/01 09:13:50;;;;;;;22.10;14.63;;;;;;;7.04;59.29;100407.88;5049704;28;20194;-60
2022/03/01 09:16:17;;;;;;;25.20;15.73;;;;;;;7.18;59.95;100402.50;5051200;28;20369;-61
2022/03/01 09:18:44;;;;;;;17.50;12.90;;;;;;;7.36;58.54;100400.78;5051189;28;20660;-61
2022/03/01 09:21:11;;;;;;;16.33;12.93;;;;;;;7.31;57.36;100405.66;5051386;28;20189;-60
2022/03/01 09:23:38;;;;;;;16.17;12.97;;;;;;;7.38;57.49;100404.25;5048123;28;20183;-61
2022/03/01 09:26:05;;;;;;;20.63;14.03;;;;;;;7.43;57.09;100405.34;5051442;28;20265;-62
2022/03/01 09:28:32;;;;;;;17.27;13.83;;;;;;;7.34;57.46;100370.00;5051262;28;20308;-61
2022/03/01 09:31:01;;;;;;;16.90;13.27;;;;;;;7.45;55.67;100396.91;5048615;28;20197;-62
2022/03/01 09:33:28;;;;;;;21.60;15.40;;;;;;;7.30;55.76;100400.50;5051210;28;20252;-62
2022/03/01 09:35:55;;;;;;;15.80;13.10;;;;;;;7.02;56.54;100406.97;5051008;28;20187;-61
2022/03/01 09:38:24;;;;;;;16.20;13.63;;;;;;;7.11;57.02;100393.72;5051029;28;20248;-61
2022/03/01 09:40:51;;;;;;;17.93;10.80;;;;;;;7.47;54.76;100402.97;5048829;28;20188;-62
2022/03/01 09:43:20;;;;;;;12.07;9.40;;;;;;;7.78;52.64;100399.13;5052576;28;20199;-61
2022/03/01 09:45:47;;;;;;;20.40;15.90;;;;;;;7.25;53.21;100326.16;5062495;28;20777;-62
2022/03/01 09:48:15;;;;;;;18.40;14.47;;;;;;;7.45;55.21;100402.03;5067537;28;20219;-60
2022/03/01 09:50:43;;;;;;;17.83;15.07;;;;;;;7.52;54.44;100404.06;5035357;28;20221;-64
2022/03/01 09:53:10;;;;;;;18.63;14.33;;;;;;;7.72;55.01;100403.19;5032263;28;20190;-61
2022/03/01 09:55:37;;;;;;;17.03;13.00;;;;;;;7.79;54.20;100399.22;5046999;28;20194;-61
2022/03/01 09:58:04;;;;;;;11.33;9.90;;;;;;;7.59;51.70;100403.50;5049586;28;20184;-62
2022/03/01 10:00:31;;;;;;;14.67;10.37;;;;;;;7.75;51.39;100392.22;5038180;28;20670;-62
2022/03/01 10:02:59;;;;;;;9.07;7.90;;;;;;;7.72;49.44;100395.53;5044646;28;20203;-61
2022/03/01 10:05:36;;;;;;;12.80;8.45;;;;;;;7.48;49.48;100398.72;5048340;28;20431;-59
2022/03/01 10:08:10;;;;;;;12.00;9.87;;;;;;;7.56;50.56;100389.69;5048926;28;20220;-60
2022/03/01 10:10:39;;;;;;;12.73;9.80;;;;;;;7.62;52.39;100369.50;5041488;28;20244;-60
2022/03/01 10:13:07;;;;;;;15.40;10.20;;;;;;;7.70;52.33;100375.81;5046850;28;20278;-61
2022/03/01 10:15:34;;;;;;;14.80;11.53;;;;;;;7.67;52.26;100376.56;5049470;28;20655;-61
2022/03/01 10:18:10;;;;;;;18.47;12.50;;;;;;;7.65;53.33;100354.28;5042333;28;20204;-61
2022/03/01 10:20:41;;;;;;;10.53;9.20;;;;;;;7.69;50.21;100369.81;5049204;28;20198;-61
2022/03/01 10:23:10;;;;;;;11.80;9.23;;;;;;;7.38;49.93;100369.34;5049617;28;20230;-62
2022/03/01 10:25:39;;;;;;;11.10;9.90;;;;;;;7.34;50.75;100361.47;5049672;28;20435;-62
2022/03/01 10:28:07;;;;;;;14.00;9.77;;;;;;;7.35;50.78;100347.88;5049909;28;20363;-61
2022/03/01 10:30:38;;;;;;;11.33;8.20;;;;;;;7.37;49.09;100354.81;5049757;28;20224;-61
2022/03/01 10:33:14;;;;;;;14.20;9.07;;;;;;;7.29;49.38;100330.63;5046362;28;20682;-62
2022/03/01 10:35:44;;;;;;;14.37;10.10;;;;;;;7.41;51.54;100350.72;5039478;28;20194;-61
2022/03/01 10:38:12;;;;;;;11.05;9.75;;;;;;;7.35;49.87;100347.88;5046352;28;20514;-60
2022/03/01 10:40:41;;;;;;;11.17;9.37;;;;;;;7.44;50.22;100338.06;5050117;28;20246;-61
2022/03/01 10:43:09;;;;;;;10.00;8.57;;;;;;;7.52;48.56;100337.56;5046209;28;20235;-61
2022/03/01 10:45:40;;;;;;;11.53;8.70;;;;;;;7.45;47.95;100327.88;5047701;28;20249;-62
2022/03/01 10:48:08;;;;;;;11.13;9.00;;;;;;;7.53;46.79;100329.06;5047415;28;20511;-61
2022/03/01 10:50:36;;;;;;;8.37;7.53;;;;;;;7.68;45.89;100319.50;5049625;28;20678;-61
2022/03/01 10:53:05;;;;;;;5.90;5.30;;;;;;;7.78;43.84;100309.59;5041785;28;20272;-61
2022/03/01 10:55:34;;;;;;;11.03;5.83;;;;;;;7.81;42.92;100309.72;5042530;28;20196;-61
2022/03/01 10:58:05;;;;;;;5.17;4.77;;;;;;;7.80;42.60;100305.44;5049688;28;20209;-62
2022/03/01 11:00:32;;;;;;;7.05;6.30;;;;;;;7.95;41.90;100293.25;5048762;28;20439;-61
2022/03/01 11:03:00;;;;;;;7.60;6.53;;;;;;;8.27;41.95;100292.81;5049400;28;20225;-61
2022/03/01 11:05:30;;;;;;;16.27;8.80;;;;;;;8.08;41.53;100298.91;5043931;28;20193;-62
2022/03/01 11:08:01;;;;;;;8.77;7.77;;;;;;;7.76;41.89;100296.78;5038309;28;20454;-61
2022/03/01 11:10:32;;;;;;;8.53;7.10;;;;;;;7.77;42.13;100298.53;5034153;28;20199;-61
2022/03/01 11:13:00;;;;;;;6.50;5.67;;;;;;;7.89;42.39;100295.56;5033519;28;20576;-61
2022/03/01 11:15:42;;;;;;;10.47;6.90;;;;;;;8.40;41.32;100283.94;5038860;28;20643;-59
2022/03/01 11:18:32;;;;;;;6.97;6.20;;;;;;;8.75;41.30;100279.28;5029366;28;20189;-62
2022/03/01 11:21:03;;;;;;;9.85;7.68;;;;;;;8.92;40.99;100271.31;5027415;28;20440;-60
2022/03/01 11:23:30;;;;;;;10.13;7.60;;;;;;;8.67;40.13;100272.16;5038351;28;20237;-61
2022/03/01 11:26:08;;;;;;;8.40;6.73;;;;;;;8.72;39.89;100268.06;5049307;28;20203;-61